sensor_id;sensor_type;location;lat;lon;timestamp;temperature;humidity
573;DHT22;271;51.114;13.780;2023-05-02T00:00:40;12.70;1.00
573;DHT22;271;51.114;13.780;2023-05-02T00:03:32;12.70;1.00
573;DHT22;271;51.114;13.780;2023-05-02T00:06:19;12.60;1.00
573;DHT22;271;51.114;13.780;2023-05-02T00:09:07;12.60;1.00
573;DHT22;271;51.114;13.780;2023-05-02T00:11:55;12.60;1.00
573;DHT22;271;51.114;13.780;2023-05-02T00:14:45;12.50;1.00
573;DHT22;271;51.114;13.780;2023-05-02T00:17:32;12.50;1.00
573;DHT22;271;51.114;13.780;2023-05-02T00:20:22;12.50;1.00
573;DHT22;271;51.114;13.780;2023-05-02T00:23:10;12.60;1.00
573;DHT22;271;51.114;13.780;2023-05-02T00:25:58;12.60;1.00
573;DHT22;271;51.114;13.780;2023-05-02T00:28:46;12.60;1.00
573;DHT22;271;51.114;13.780;2023-05-02T00:31:33;12.40;1.00
573;DHT22;271;51.114;13.780;2023-05-02T00:34:22;12.40;1.00
573;DHT22;271;51.114;13.780;2023-05-02T00:37:11;12.40;1.00
573;DHT22;271;51.114;13.780;2023-05-02T00:39:59;12.40;1.00
573;DHT22;271;51.114;13.780;2023-05-02T00:42:46;12.40;1.00
573;DHT22;271;51.114;13.780;2023-05-02T00:45:34;12.50;1.00
573;DHT22;271;51.114;13.780;2023-05-02T00:48:22;12.50;1.00
573;DHT22;271;51.114;13.780;2023-05-02T00:51:11;12.50;1.00
573;DHT22;271;51.114;13.780;2023-05-02T00:54:01;12.40;1.00
573;DHT22;271;51.114;13.780;2023-05-02T00:56:48;12.30;1.00
573;DHT22;271;51.114;13.780;2023-05-02T00:59:36;12.40;1.00
573;DHT22;271;51.114;13.780;2023-05-02T01:02:35;12.30;1.00
573;DHT22;271;51.114;13.780;2023-05-02T01:05:27;12.40;1.00
573;DHT22;271;51.114;13.780;2023-05-02T01:08:24;12.40;1.00
573;DHT22;271;51.114;13.780;2023-05-02T01:11:25;12.40;1.00
573;DHT22;271;51.114;13.780;2023-05-02T01:14:15;12.50;1.00
573;DHT22;271;51.114;13.780;2023-05-02T01:17:05;12.50;1.00
573;DHT22;271;51.114;13.780;2023-05-02T01:19:57;12.50;1.00
573;DHT22;271;51.114;13.780;2023-05-02T01:22:46;12.50;1.00
573;DHT22;271;51.114;13.780;2023-05-02T01:25:42;12.50;1.00
573;DHT22;271;51.114;13.780;2023-05-02T01:28:57;12.50;1.00
573;DHT22;271;51.114;13.780;2023-05-02T01:31:48;12.40;1.00
573;DHT22;271;51.114;13.780;2023-05-02T01:34:37;12.40;1.00
573;DHT22;271;51.114;13.780;2023-05-02T01:37:27;12.40;1.00
573;DHT22;271;51.114;13.780;2023-05-02T01:40:17;12.40;1.00
573;DHT22;271;51.114;13.780;2023-05-02T01:43:06;12.30;1.00
573;DHT22;271;51.114;13.780;2023-05-02T01:45:56;12.40;1.00
573;DHT22;271;51.114;13.780;2023-05-02T01:48:45;12.40;1.00
573;DHT22;271;51.114;13.780;2023-05-02T01:51:35;12.30;1.00
573;DHT22;271;51.114;13.780;2023-05-02T01:54:25;12.30;1.00
573;DHT22;271;51.114;13.780;2023-05-02T01:57:13;12.20;1.00
573;DHT22;271;51.114;13.780;2023-05-02T02:00:02;12.20;1.00
573;DHT22;271;51.114;13.780;2023-05-02T02:02:54;12.20;1.00
573;DHT22;271;51.114;13.780;2023-05-02T02:05:44;12.30;1.00
573;DHT22;271;51.114;13.780;2023-05-02T02:08:35;12.20;1.00
573;DHT22;271;51.114;13.780;2023-05-02T02:11:26;12.20;1.00
573;DHT22;271;51.114;13.780;2023-05-02T02:14:20;12.20;1.00
573;DHT22;271;51.114;13.780;2023-05-02T02:17:12;12.10;1.00
573;DHT22;271;51.114;13.780;2023-05-02T02:20:05;12.10;1.00
573;DHT22;271;51.114;13.780;2023-05-02T02:22:54;12.20;1.00
573;DHT22;271;51.114;13.780;2023-05-02T02:25:43;12.30;1.00
573;DHT22;271;51.114;13.780;2023-05-02T02:28:33;12.30;1.00
573;DHT22;271;51.114;13.780;2023-05-02T02:31:21;12.30;1.00
573;DHT22;271;51.114;13.780;2023-05-02T02:34:10;12.20;1.00
573;DHT22;271;51.114;13.780;2023-05-02T02:37:03;12.30;1.00
573;DHT22;271;51.114;13.780;2023-05-02T02:40:02;12.20;1.00
573;DHT22;271;51.114;13.780;2023-05-02T02:42:58;12.30;1.00
573;DHT22;271;51.114;13.780;2023-05-02T02:45:56;12.30;1.00
573;DHT22;271;51.114;13.780;2023-05-02T02:48:56;12.20;1.00
573;DHT22;271;51.114;13.780;2023-05-02T02:51:49;12.20;1.00
573;DHT22;271;51.114;13.780;2023-05-02T02:54:45;12.20;1.00
573;DHT22;271;51.114;13.780;2023-05-02T02:57:38;12.20;1.00
573;DHT22;271;51.114;13.780;2023-05-02T03:00:28;12.20;1.00
573;DHT22;271;51.114;13.780;2023-05-02T03:03:21;12.20;1.00
573;DHT22;271;51.114;13.780;2023-05-02T03:06:10;12.20;1.00
573;DHT22;271;51.114;13.780;2023-05-02T03:08:58;12.10;1.00
573;DHT22;271;51.114;13.780;2023-05-02T03:11:47;12.20;1.00
573;DHT22;271;51.114;13.780;2023-05-02T03:14:35;12.20;1.00
573;DHT22;271;51.114;13.780;2023-05-02T03:17:22;12.10;1.00
573;DHT22;271;51.114;13.780;2023-05-02T03:20:10;12.10;1.00
573;DHT22;271;51.114;13.780;2023-05-02T03:22:58;12.20;1.00
573;DHT22;271;51.114;13.780;2023-05-02T03:25:45;12.20;1.00
573;DHT22;271;51.114;13.780;2023-05-02T03:28:34;12.10;1.00
573;DHT22;271;51.114;13.780;2023-05-02T03:31:22;12.10;1.00
573;DHT22;271;51.114;13.780;2023-05-02T03:34:10;12.10;1.00
573;DHT22;271;51.114;13.780;2023-05-02T03:36:57;12.10;1.00
573;DHT22;271;51.114;13.780;2023-05-02T03:39:45;12.20;1.00
573;DHT22;271;51.114;13.780;2023-05-02T03:42:33;12.10;1.00
573;DHT22;271;51.114;13.780;2023-05-02T03:45:26;12.10;1.00
573;DHT22;271;51.114;13.780;2023-05-02T03:48:14;12.10;1.00
573;DHT22;271;51.114;13.780;2023-05-02T03:51:03;12.10;1.00
573;DHT22;271;51.114;13.780;2023-05-02T03:53:52;12.10;1.00
573;DHT22;271;51.114;13.780;2023-05-02T03:56:40;12.10;1.00
573;DHT22;271;51.114;13.780;2023-05-02T03:59:32;12.10;1.00
573;DHT22;271;51.114;13.780;2023-05-02T04:02:21;12.10;1.00
573;DHT22;271;51.114;13.780;2023-05-02T04:05:09;12.10;1.00
573;DHT22;271;51.114;13.780;2023-05-02T04:07:57;12.00;1.00
573;DHT22;271;51.114;13.780;2023-05-02T04:10:44;12.00;1.00
573;DHT22;271;51.114;13.780;2023-05-02T04:13:32;11.90;1.00
573;DHT22;271;51.114;13.780;2023-05-02T04:16:20;12.00;1.00
573;DHT22;271;51.114;13.780;2023-05-02T04:19:09;12.00;1.00
573;DHT22;271;51.114;13.780;2023-05-02T04:21:56;12.00;1.00
573;DHT22;271;51.114;13.780;2023-05-02T04:24:44;12.00;1.00
573;DHT22;271;51.114;13.780;2023-05-02T04:27:32;11.90;1.00
573;DHT22;271;51.114;13.780;2023-05-02T04:30:20;11.90;1.00
573;DHT22;271;51.114;13.780;2023-05-02T04:33:07;12.00;1.00
573;DHT22;271;51.114;13.780;2023-05-02T04:35:56;12.00;1.00
573;DHT22;271;51.114;13.780;2023-05-02T04:38:44;12.10;1.00
573;DHT22;271;51.114;13.780;2023-05-02T04:41:32;12.20;1.00
573;DHT22;271;51.114;13.780;2023-05-02T04:44:20;12.30;1.00
573;DHT22;271;51.114;13.780;2023-05-02T04:47:07;12.30;1.00
573;DHT22;271;51.114;13.780;2023-05-02T04:49:55;12.30;1.00
573;DHT22;271;51.114;13.780;2023-05-02T04:52:44;12.40;1.00
573;DHT22;271;51.114;13.780;2023-05-02T04:55:32;12.30;1.00
573;DHT22;271;51.114;13.780;2023-05-02T04:58:20;12.50;1.00
573;DHT22;271;51.114;13.780;2023-05-02T05:01:08;12.60;1.00
573;DHT22;271;51.114;13.780;2023-05-02T05:03:56;12.60;1.00
573;DHT22;271;51.114;13.780;2023-05-02T05:06:44;12.70;1.00
573;DHT22;271;51.114;13.780;2023-05-02T05:09:34;12.70;1.00
573;DHT22;271;51.114;13.780;2023-05-02T05:12:21;12.80;1.00
573;DHT22;271;51.114;13.780;2023-05-02T05:15:10;12.80;1.00
573;DHT22;271;51.114;13.780;2023-05-02T05:17:57;12.80;1.00
573;DHT22;271;51.114;13.780;2023-05-02T05:20:45;12.90;1.00
573;DHT22;271;51.114;13.780;2023-05-02T05:23:33;12.90;1.00
573;DHT22;271;51.114;13.780;2023-05-02T05:26:22;12.90;1.00
573;DHT22;271;51.114;13.780;2023-05-02T05:29:10;13.00;1.00
573;DHT22;271;51.114;13.780;2023-05-02T05:31:58;13.00;1.00
573;DHT22;271;51.114;13.780;2023-05-02T05:34:45;13.00;1.00
573;DHT22;271;51.114;13.780;2023-05-02T05:37:33;13.10;1.00
573;DHT22;271;51.114;13.780;2023-05-02T05:40:22;13.10;1.00
573;DHT22;271;51.114;13.780;2023-05-02T05:43:11;13.30;1.00
573;DHT22;271;51.114;13.780;2023-05-02T05:45:59;13.40;1.00
573;DHT22;271;51.114;13.780;2023-05-02T05:48:47;13.50;1.00
573;DHT22;271;51.114;13.780;2023-05-02T05:51:35;13.70;1.00
573;DHT22;271;51.114;13.780;2023-05-02T05:54:22;13.80;1.00
573;DHT22;271;51.114;13.780;2023-05-02T05:57:10;14.00;1.00
573;DHT22;271;51.114;13.780;2023-05-02T05:59:59;14.10;1.00
573;DHT22;271;51.114;13.780;2023-05-02T06:02:53;14.30;1.00
573;DHT22;271;51.114;13.780;2023-05-02T06:05:44;14.60;1.00
573;DHT22;271;51.114;13.780;2023-05-02T06:08:34;14.60;1.00
573;DHT22;271;51.114;13.780;2023-05-02T06:11:22;14.90;1.00
573;DHT22;271;51.114;13.780;2023-05-02T06:14:09;15.30;1.00
573;DHT22;271;51.114;13.780;2023-05-02T06:16:59;15.60;1.00
573;DHT22;271;51.114;13.780;2023-05-02T06:19:47;15.80;1.00
573;DHT22;271;51.114;13.780;2023-05-02T06:22:34;15.90;1.00
573;DHT22;271;51.114;13.780;2023-05-02T06:25:22;15.90;1.00
573;DHT22;271;51.114;13.780;2023-05-02T06:28:10;16.00;1.00
573;DHT22;271;51.114;13.780;2023-05-02T06:30:58;16.10;1.00
573;DHT22;271;51.114;13.780;2023-05-02T06:33:48;16.10;1.00
573;DHT22;271;51.114;13.780;2023-05-02T06:36:37;16.10;1.00
573;DHT22;271;51.114;13.780;2023-05-02T06:39:24;16.00;1.00
573;DHT22;271;51.114;13.780;2023-05-02T06:42:12;15.80;1.00
573;DHT22;271;51.114;13.780;2023-05-02T06:45:00;15.90;1.00
573;DHT22;271;51.114;13.780;2023-05-02T06:47:47;16.10;1.00
573;DHT22;271;51.114;13.780;2023-05-02T06:50:36;16.30;1.00
573;DHT22;271;51.114;13.780;2023-05-02T06:53:24;16.50;1.00
573;DHT22;271;51.114;13.780;2023-05-02T06:56:12;16.60;1.00
573;DHT22;271;51.114;13.780;2023-05-02T06:59:00;16.60;1.00
573;DHT22;271;51.114;13.780;2023-05-02T07:01:47;16.40;1.00
573;DHT22;271;51.114;13.780;2023-05-02T07:04:35;16.50;1.00
573;DHT22;271;51.114;13.780;2023-05-02T07:07:24;16.50;1.00
573;DHT22;271;51.114;13.780;2023-05-02T07:10:12;16.50;1.00
573;DHT22;271;51.114;13.780;2023-05-02T07:12:59;16.40;1.00
573;DHT22;271;51.114;13.780;2023-05-02T07:15:47;16.50;1.00
573;DHT22;271;51.114;13.780;2023-05-02T07:18:35;16.80;1.00
573;DHT22;271;51.114;13.780;2023-05-02T07:21:22;16.80;1.00
573;DHT22;271;51.114;13.780;2023-05-02T07:24:11;17.00;1.00
573;DHT22;271;51.114;13.780;2023-05-02T07:26:59;17.00;1.00
573;DHT22;271;51.114;13.780;2023-05-02T07:29:48;17.20;1.00
573;DHT22;271;51.114;13.780;2023-05-02T07:32:36;16.90;1.00
573;DHT22;271;51.114;13.780;2023-05-02T07:35:24;16.60;1.00
573;DHT22;271;51.114;13.780;2023-05-02T07:38:12;16.60;1.00
573;DHT22;271;51.114;13.780;2023-05-02T07:41:01;16.60;1.00
573;DHT22;271;51.114;13.780;2023-05-02T07:43:49;16.30;1.00
573;DHT22;271;51.114;13.780;2023-05-02T07:46:36;15.90;1.00
573;DHT22;271;51.114;13.780;2023-05-02T07:49:24;15.50;1.00
573;DHT22;271;51.114;13.780;2023-05-02T07:52:12;15.10;1.00
573;DHT22;271;51.114;13.780;2023-05-02T07:54:59;14.70;1.00
573;DHT22;271;51.114;13.780;2023-05-02T07:57:48;14.40;1.00
573;DHT22;271;51.114;13.780;2023-05-02T08:00:36;14.40;1.00
573;DHT22;271;51.114;13.780;2023-05-02T08:03:24;14.40;1.00
573;DHT22;271;51.114;13.780;2023-05-02T08:06:13;14.50;1.00
573;DHT22;271;51.114;13.780;2023-05-02T08:09:00;14.50;1.00
573;DHT22;271;51.114;13.780;2023-05-02T08:11:48;14.50;1.00
573;DHT22;271;51.114;13.780;2023-05-02T08:14:37;14.40;1.00
573;DHT22;271;51.114;13.780;2023-05-02T08:17:25;14.50;1.00
573;DHT22;271;51.114;13.780;2023-05-02T08:20:14;14.90;1.00
573;DHT22;271;51.114;13.780;2023-05-02T08:23:02;15.80;1.00
573;DHT22;271;51.114;13.780;2023-05-02T08:25:49;16.20;1.00
573;DHT22;271;51.114;13.780;2023-05-02T08:28:37;16.70;1.00
573;DHT22;271;51.114;13.780;2023-05-02T08:31:26;17.00;1.00
573;DHT22;271;51.114;13.780;2023-05-02T08:34:14;17.10;1.00
573;DHT22;271;51.114;13.780;2023-05-02T08:37:07;16.90;1.00
573;DHT22;271;51.114;13.780;2023-05-02T08:39:55;17.00;1.00
573;DHT22;271;51.114;13.780;2023-05-02T08:42:43;16.80;1.00
573;DHT22;271;51.114;13.780;2023-05-02T08:45:34;16.60;1.00
573;DHT22;271;51.114;13.780;2023-05-02T08:48:26;16.20;1.00
573;DHT22;271;51.114;13.780;2023-05-02T08:51:15;16.10;1.00
573;DHT22;271;51.114;13.780;2023-05-02T08:54:03;16.20;1.00
573;DHT22;271;51.114;13.780;2023-05-02T08:56:55;16.20;1.00
573;DHT22;271;51.114;13.780;2023-05-02T08:59:44;16.10;1.00
573;DHT22;271;51.114;13.780;2023-05-02T09:02:43;16.20;1.00
573;DHT22;271;51.114;13.780;2023-05-02T09:05:39;16.30;1.00
573;DHT22;271;51.114;13.780;2023-05-02T09:08:27;16.30;1.00
573;DHT22;271;51.114;13.780;2023-05-02T09:11:15;16.40;1.00
573;DHT22;271;51.114;13.780;2023-05-02T09:14:13;16.40;1.00
573;DHT22;271;51.114;13.780;2023-05-02T09:17:01;16.70;1.00
573;DHT22;271;51.114;13.780;2023-05-02T09:19:58;17.00;1.00
573;DHT22;271;51.114;13.780;2023-05-02T09:22:51;17.20;1.00
573;DHT22;271;51.114;13.780;2023-05-02T09:25:39;17.20;1.00
573;DHT22;271;51.114;13.780;2023-05-02T09:28:40;17.40;1.00
573;DHT22;271;51.114;13.780;2023-05-02T09:31:30;17.10;1.00
573;DHT22;271;51.114;13.780;2023-05-02T09:34:19;17.20;1.00
573;DHT22;271;51.114;13.780;2023-05-02T09:37:07;17.60;1.00
573;DHT22;271;51.114;13.780;2023-05-02T09:40:08;17.40;1.00
573;DHT22;271;51.114;13.780;2023-05-02T09:42:55;17.20;1.00
573;DHT22;271;51.114;13.780;2023-05-02T09:45:55;17.50;1.00
573;DHT22;271;51.114;13.780;2023-05-02T09:48:53;18.10;1.00
573;DHT22;271;51.114;13.780;2023-05-02T09:51:42;18.80;1.00
573;DHT22;271;51.114;13.780;2023-05-02T09:54:33;19.50;1.00
573;DHT22;271;51.114;13.780;2023-05-02T09:57:38;19.40;1.00
573;DHT22;271;51.114;13.780;2023-05-02T10:00:40;18.70;1.00
573;DHT22;271;51.114;13.780;2023-05-02T10:03:29;17.70;1.00
573;DHT22;271;51.114;13.780;2023-05-02T10:06:18;17.30;1.00
573;DHT22;271;51.114;13.780;2023-05-02T10:09:08;17.30;1.00
573;DHT22;271;51.114;13.780;2023-05-02T10:11:59;17.40;1.00
573;DHT22;271;51.114;13.780;2023-05-02T10:14:56;17.40;1.00
573;DHT22;271;51.114;13.780;2023-05-02T10:17:47;17.40;1.00
573;DHT22;271;51.114;13.780;2023-05-02T10:20:36;17.40;1.00
573;DHT22;271;51.114;13.780;2023-05-02T10:23:29;17.30;1.00
573;DHT22;271;51.114;13.780;2023-05-02T10:26:16;17.20;1.00
573;DHT22;271;51.114;13.780;2023-05-02T10:29:06;17.00;1.00
573;DHT22;271;51.114;13.780;2023-05-02T10:31:56;16.90;1.00
573;DHT22;271;51.114;13.780;2023-05-02T10:34:45;16.90;1.00
573;DHT22;271;51.114;13.780;2023-05-02T10:37:35;16.80;1.00
573;DHT22;271;51.114;13.780;2023-05-02T10:40:25;16.90;1.00
573;DHT22;271;51.114;13.780;2023-05-02T10:43:14;16.90;1.00
573;DHT22;271;51.114;13.780;2023-05-02T10:46:03;16.90;1.00
573;DHT22;271;51.114;13.780;2023-05-02T10:49:12;16.70;1.00
573;DHT22;271;51.114;13.780;2023-05-02T10:52:29;16.50;1.00
573;DHT22;271;51.114;13.780;2023-05-02T10:55:19;16.30;1.00
573;DHT22;271;51.114;13.780;2023-05-02T10:58:19;16.20;1.00
573;DHT22;271;51.114;13.780;2023-05-02T11:01:35;16.10;1.00
573;DHT22;271;51.114;13.780;2023-05-02T11:04:59;16.30;1.00
573;DHT22;271;51.114;13.780;2023-05-02T11:07:47;16.30;1.00
573;DHT22;271;51.114;13.780;2023-05-02T11:10:35;16.50;1.00
573;DHT22;271;51.114;13.780;2023-05-02T11:13:47;16.60;1.00
573;DHT22;271;51.114;13.780;2023-05-02T11:17:04;16.90;1.00
573;DHT22;271;51.114;13.780;2023-05-02T11:20:23;17.30;1.00
573;DHT22;271;51.114;13.780;2023-05-02T11:23:24;17.40;1.00
573;DHT22;271;51.114;13.780;2023-05-02T11:26:20;17.30;1.00
573;DHT22;271;51.114;13.780;2023-05-02T11:29:08;17.20;1.00
573;DHT22;271;51.114;13.780;2023-05-02T11:31:57;17.10;1.00
573;DHT22;271;51.114;13.780;2023-05-02T11:34:46;16.90;1.00
573;DHT22;271;51.114;13.780;2023-05-02T11:37:39;16.90;1.00
573;DHT22;271;51.114;13.780;2023-05-02T11:40:30;17.20;1.00
573;DHT22;271;51.114;13.780;2023-05-02T11:43:18;17.50;1.00
573;DHT22;271;51.114;13.780;2023-05-02T11:46:06;17.60;1.00
573;DHT22;271;51.114;13.780;2023-05-02T11:48:55;17.80;1.00
573;DHT22;271;51.114;13.780;2023-05-02T11:51:42;17.40;1.00
573;DHT22;271;51.114;13.780;2023-05-02T11:54:37;17.30;1.00
573;DHT22;271;51.114;13.780;2023-05-02T11:57:26;17.40;1.00
573;DHT22;271;51.114;13.780;2023-05-02T12:00:15;17.60;1.00
573;DHT22;271;51.114;13.780;2023-05-02T12:03:28;17.60;1.00
573;DHT22;271;51.114;13.780;2023-05-02T12:06:19;17.50;1.00
573;DHT22;271;51.114;13.780;2023-05-02T12:09:18;17.20;1.00
573;DHT22;271;51.114;13.780;2023-05-02T12:12:18;16.70;1.00
573;DHT22;271;51.114;13.780;2023-05-02T12:15:12;16.40;1.00
573;DHT22;271;51.114;13.780;2023-05-02T12:18:11;16.20;1.00
573;DHT22;271;51.114;13.780;2023-05-02T12:21:11;16.10;1.00
573;DHT22;271;51.114;13.780;2023-05-02T12:24:07;16.10;1.00
573;DHT22;271;51.114;13.780;2023-05-02T12:27:16;16.00;1.00
573;DHT22;271;51.114;13.780;2023-05-02T12:30:13;15.90;1.00
573;DHT22;271;51.114;13.780;2023-05-02T12:33:22;15.80;1.00
573;DHT22;271;51.114;13.780;2023-05-02T12:36:10;16.00;1.00
573;DHT22;271;51.114;13.780;2023-05-02T12:38:58;16.20;1.00
573;DHT22;271;51.114;13.780;2023-05-02T12:41:46;16.10;1.00
573;DHT22;271;51.114;13.780;2023-05-02T12:44:36;16.20;1.00
573;DHT22;271;51.114;13.780;2023-05-02T12:47:25;16.40;1.00
573;DHT22;271;51.114;13.780;2023-05-02T12:50:12;16.40;1.00
573;DHT22;271;51.114;13.780;2023-05-02T12:53:00;16.60;1.00
573;DHT22;271;51.114;13.780;2023-05-02T12:56:00;17.00;1.00
573;DHT22;271;51.114;13.780;2023-05-02T12:58:49;17.30;1.00
573;DHT22;271;51.114;13.780;2023-05-02T13:01:38;17.30;1.00
573;DHT22;271;51.114;13.780;2023-05-02T13:04:33;17.50;1.00
573;DHT22;271;51.114;13.780;2023-05-02T13:07:21;17.60;1.00
573;DHT22;271;51.114;13.780;2023-05-02T13:10:09;17.70;1.00
573;DHT22;271;51.114;13.780;2023-05-02T13:12:57;17.50;1.00
573;DHT22;271;51.114;13.780;2023-05-02T13:15:45;17.60;1.00
573;DHT22;271;51.114;13.780;2023-05-02T13:18:34;17.80;1.00
573;DHT22;271;51.114;13.780;2023-05-02T13:21:22;17.70;1.00
573;DHT22;271;51.114;13.780;2023-05-02T13:24:09;17.50;1.00
573;DHT22;271;51.114;13.780;2023-05-02T13:26:57;17.40;1.00
573;DHT22;271;51.114;13.780;2023-05-02T13:29:45;17.40;1.00
573;DHT22;271;51.114;13.780;2023-05-02T13:32:32;17.20;1.00
573;DHT22;271;51.114;13.780;2023-05-02T13:35:22;17.20;1.00
573;DHT22;271;51.114;13.780;2023-05-02T13:38:09;17.30;1.00
573;DHT22;271;51.114;13.780;2023-05-02T13:41:00;17.20;1.00
573;DHT22;271;51.114;13.780;2023-05-02T13:43:48;17.10;1.00
573;DHT22;271;51.114;13.780;2023-05-02T13:46:35;17.20;1.00
573;DHT22;271;51.114;13.780;2023-05-02T13:49:23;17.10;1.00
573;DHT22;271;51.114;13.780;2023-05-02T13:52:12;17.10;1.00
573;DHT22;271;51.114;13.780;2023-05-02T13:55:00;17.00;1.00
573;DHT22;271;51.114;13.780;2023-05-02T13:57:48;17.10;1.00
573;DHT22;271;51.114;13.780;2023-05-02T14:00:36;17.10;1.00
573;DHT22;271;51.114;13.780;2023-05-02T14:03:27;17.10;1.00
573;DHT22;271;51.114;13.780;2023-05-02T14:06:15;17.10;1.00
573;DHT22;271;51.114;13.780;2023-05-02T14:09:04;16.90;1.00
573;DHT22;271;51.114;13.780;2023-05-02T14:11:52;16.90;1.00
573;DHT22;271;51.114;13.780;2023-05-02T14:14:47;16.90;1.00
573;DHT22;271;51.114;13.780;2023-05-02T14:17:35;16.90;1.00
573;DHT22;271;51.114;13.780;2023-05-02T14:20:24;16.90;1.00
573;DHT22;271;51.114;13.780;2023-05-02T14:23:12;17.00;1.00
573;DHT22;271;51.114;13.780;2023-05-02T14:26:01;16.90;1.00
573;DHT22;271;51.114;13.780;2023-05-02T14:28:49;17.10;1.00
573;DHT22;271;51.114;13.780;2023-05-02T14:31:37;17.00;1.00
573;DHT22;271;51.114;13.780;2023-05-02T14:34:24;16.90;1.00
573;DHT22;271;51.114;13.780;2023-05-02T14:37:15;16.90;1.00
573;DHT22;271;51.114;13.780;2023-05-02T14:40:03;16.90;1.00
573;DHT22;271;51.114;13.780;2023-05-02T14:42:56;16.80;1.00
573;DHT22;271;51.114;13.780;2023-05-02T14:45:43;16.70;1.00
573;DHT22;271;51.114;13.780;2023-05-02T14:48:34;16.70;1.00
573;DHT22;271;51.114;13.780;2023-05-02T14:51:22;16.60;1.00
573;DHT22;271;51.114;13.780;2023-05-02T14:54:10;16.40;1.00
573;DHT22;271;51.114;13.780;2023-05-02T14:56:57;16.20;1.00
573;DHT22;271;51.114;13.780;2023-05-02T14:59:50;15.70;1.00
573;DHT22;271;51.114;13.780;2023-05-02T15:02:38;15.60;1.00
573;DHT22;271;51.114;13.780;2023-05-02T15:05:26;15.40;1.00
573;DHT22;271;51.114;13.780;2023-05-02T15:08:13;15.10;1.00
573;DHT22;271;51.114;13.780;2023-05-02T15:11:04;15.00;1.00
573;DHT22;271;51.114;13.780;2023-05-02T15:13:52;14.90;1.00
573;DHT22;271;51.114;13.780;2023-05-02T15:16:42;14.70;1.00
573;DHT22;271;51.114;13.780;2023-05-02T15:19:29;14.60;1.00
573;DHT22;271;51.114;13.780;2023-05-02T15:22:17;14.60;1.00
573;DHT22;271;51.114;13.780;2023-05-02T15:25:06;14.70;1.00
573;DHT22;271;51.114;13.780;2023-05-02T15:27:55;14.80;1.00
573;DHT22;271;51.114;13.780;2023-05-02T15:30:43;14.80;1.00
573;DHT22;271;51.114;13.780;2023-05-02T15:33:33;14.90;1.00
573;DHT22;271;51.114;13.780;2023-05-02T15:36:25;14.90;1.00
573;DHT22;271;51.114;13.780;2023-05-02T15:39:13;14.80;1.00
573;DHT22;271;51.114;13.780;2023-05-02T15:42:01;14.80;1.00
573;DHT22;271;51.114;13.780;2023-05-02T15:44:50;14.90;1.00
573;DHT22;271;51.114;13.780;2023-05-02T15:47:39;15.10;1.00
573;DHT22;271;51.114;13.780;2023-05-02T15:50:31;15.10;1.00
573;DHT22;271;51.114;13.780;2023-05-02T15:53:19;15.10;1.00
573;DHT22;271;51.114;13.780;2023-05-02T15:56:08;15.00;1.00
573;DHT22;271;51.114;13.780;2023-05-02T15:58:56;14.70;1.00
573;DHT22;271;51.114;13.780;2023-05-02T16:01:44;14.60;1.00
573;DHT22;271;51.114;13.780;2023-05-02T16:04:32;14.60;1.00
573;DHT22;271;51.114;13.780;2023-05-02T16:07:28;14.60;1.00
573;DHT22;271;51.114;13.780;2023-05-02T16:10:15;14.50;1.00
573;DHT22;271;51.114;13.780;2023-05-02T16:13:03;14.50;1.00
573;DHT22;271;51.114;13.780;2023-05-02T16:15:51;14.40;1.00
573;DHT22;271;51.114;13.780;2023-05-02T16:18:38;14.40;1.00
573;DHT22;271;51.114;13.780;2023-05-02T16:21:26;14.20;1.00
573;DHT22;271;51.114;13.780;2023-05-02T16:24:21;14.20;1.00
573;DHT22;271;51.114;13.780;2023-05-02T16:27:09;14.10;1.00
573;DHT22;271;51.114;13.780;2023-05-02T16:29:57;14.00;1.00
573;DHT22;271;51.114;13.780;2023-05-02T16:32:45;14.00;1.00
573;DHT22;271;51.114;13.780;2023-05-02T16:35:33;13.90;1.00
573;DHT22;271;51.114;13.780;2023-05-02T16:38:21;13.80;1.00
573;DHT22;271;51.114;13.780;2023-05-02T16:41:10;13.80;1.00
573;DHT22;271;51.114;13.780;2023-05-02T16:44:04;13.80;1.00
573;DHT22;271;51.114;13.780;2023-05-02T16:46:55;13.80;1.00
573;DHT22;271;51.114;13.780;2023-05-02T16:49:43;13.80;1.00
573;DHT22;271;51.114;13.780;2023-05-02T16:52:31;13.80;1.00
573;DHT22;271;51.114;13.780;2023-05-02T16:55:21;13.80;1.00
573;DHT22;271;51.114;13.780;2023-05-02T16:58:11;13.80;1.00
573;DHT22;271;51.114;13.780;2023-05-02T17:00:59;13.80;1.00
573;DHT22;271;51.114;13.780;2023-05-02T17:03:47;13.80;1.00
573;DHT22;271;51.114;13.780;2023-05-02T17:06:35;13.80;1.00
573;DHT22;271;51.114;13.780;2023-05-02T17:09:23;13.70;1.00
573;DHT22;271;51.114;13.780;2023-05-02T17:12:11;13.60;1.00
573;DHT22;271;51.114;13.780;2023-05-02T17:15:01;13.60;1.00
573;DHT22;271;51.114;13.780;2023-05-02T17:17:50;13.50;1.00
573;DHT22;271;51.114;13.780;2023-05-02T17:20:38;13.40;1.00
573;DHT22;271;51.114;13.780;2023-05-02T17:23:27;13.40;1.00
573;DHT22;271;51.114;13.780;2023-05-02T17:26:15;13.30;1.00
573;DHT22;271;51.114;13.780;2023-05-02T17:29:03;13.40;1.00
573;DHT22;271;51.114;13.780;2023-05-02T17:31:52;13.30;1.00
573;DHT22;271;51.114;13.780;2023-05-02T17:34:42;13.40;1.00
573;DHT22;271;51.114;13.780;2023-05-02T17:37:30;13.30;1.00
573;DHT22;271;51.114;13.780;2023-05-02T17:40:18;13.20;1.00
573;DHT22;271;51.114;13.780;2023-05-02T17:43:06;13.20;1.00
573;DHT22;271;51.114;13.780;2023-05-02T17:45:54;13.20;1.00
573;DHT22;271;51.114;13.780;2023-05-02T17:48:43;13.10;1.00
573;DHT22;271;51.114;13.780;2023-05-02T17:51:31;13.20;1.00
573;DHT22;271;51.114;13.780;2023-05-02T17:54:20;13.10;1.00
573;DHT22;271;51.114;13.780;2023-05-02T17:57:07;13.20;1.00
573;DHT22;271;51.114;13.780;2023-05-02T18:00:02;13.10;1.00
573;DHT22;271;51.114;13.780;2023-05-02T18:02:52;13.00;1.00
573;DHT22;271;51.114;13.780;2023-05-02T18:05:43;12.90;1.00
573;DHT22;271;51.114;13.780;2023-05-02T18:08:32;12.80;1.00
573;DHT22;271;51.114;13.780;2023-05-02T18:11:20;12.70;1.00
573;DHT22;271;51.114;13.780;2023-05-02T18:14:09;12.70;1.00
573;DHT22;271;51.114;13.780;2023-05-02T18:16:57;12.70;1.00
573;DHT22;271;51.114;13.780;2023-05-02T18:19:45;12.60;1.00
573;DHT22;271;51.114;13.780;2023-05-02T18:22:35;12.60;1.00
573;DHT22;271;51.114;13.780;2023-05-02T18:25:23;12.60;1.00
573;DHT22;271;51.114;13.780;2023-05-02T18:28:11;12.60;1.00
573;DHT22;271;51.114;13.780;2023-05-02T18:30:59;12.50;1.00
573;DHT22;271;51.114;13.780;2023-05-02T18:33:47;12.40;1.00
573;DHT22;271;51.114;13.780;2023-05-02T18:36:34;12.50;1.00
573;DHT22;271;51.114;13.780;2023-05-02T18:39:23;12.40;1.00
573;DHT22;271;51.114;13.780;2023-05-02T18:42:11;12.40;1.00
573;DHT22;271;51.114;13.780;2023-05-02T18:45:00;12.30;1.00
573;DHT22;271;51.114;13.780;2023-05-02T18:47:48;12.40;1.00
573;DHT22;271;51.114;13.780;2023-05-02T18:50:36;12.30;1.00
573;DHT22;271;51.114;13.780;2023-05-02T18:53:24;12.30;1.00
573;DHT22;271;51.114;13.780;2023-05-02T18:56:13;12.20;1.00
573;DHT22;271;51.114;13.780;2023-05-02T18:59:01;12.20;1.00
573;DHT22;271;51.114;13.780;2023-05-02T19:01:48;12.20;1.00
573;DHT22;271;51.114;13.780;2023-05-02T19:04:37;12.20;1.00
573;DHT22;271;51.114;13.780;2023-05-02T19:07:24;12.10;1.00